Time;durP1;ratioP1;P1;durP2;ratioP2;P2;SDS_P1;SDS_P2;PMS_P1;PMS_P2;Temp;Humidity;BMP_temperature;BMP_pressure;BME280_temperature;BME280_humidity;BME280_pressure;Samples;Min_cycle;Max_cycle;Signal;HPM_P1;HPM_P2
2022/04/18 00:01:26;;;;;;;;;19.25;18.00;;;;;;;;5058556;28;45311;-69
2022/04/18 00:03:53;;;;;;;;;18.50;18.50;;;;;;;;5059795;28;45710;-66
2022/04/18 00:06:18;;;;;;;;;21.00;21.00;;;;;;;;5059756;28;45623;-66
2022/04/18 00:08:43;;;;;;;;;21.00;19.50;;;;;;;;5059335;28;45364;-66
2022/04/18 00:11:09;;;;;;;;;19.50;18.25;;;;;;;;5059454;28;45320;-66
2022/04/18 00:13:34;;;;;;;;;20.50;18.25;;;;;;;;5059375;28;45477;-66
2022/04/18 00:15:59;;;;;;;;;15.50;15.50;;;;;;;;5059642;28;45152;-66
2022/04/18 00:18:25;;;;;;;;;21.25;18.75;;;;;;;;5059368;28;45353;-66
2022/04/18 00:20:50;;;;;;;;;17.50;17.50;;;;;;;;5059354;28;45398;-66
2022/04/18 00:23:16;;;;;;;;;20.00;19.00;;;;;;;;5059492;28;45323;-66
2022/04/18 00:25:41;;;;;;;;;19.75;18.50;;;;;;;;5059641;28;45252;-66
2022/04/18 00:28:06;;;;;;;;;20.25;18.25;;;;;;;;5057986;28;46652;-66
2022/04/18 00:30:32;;;;;;;;;18.25;17.25;;;;;;;;5058937;28;45472;-69
2022/04/18 00:32:57;;;;;;;;;20.50;20.25;;;;;;;;5059010;28;45767;-66
2022/04/18 00:35:22;;;;;;;;;23.25;20.75;;;;;;;;5059507;28;45266;-70
2022/04/18 00:37:48;;;;;;;;;22.75;21.25;;;;;;;;5058980;28;46260;-70
2022/04/18 00:40:13;;;;;;;;;21.50;19.50;;;;;;;;5058978;28;45394;-69
2022/04/18 00:42:44;;;;;;;;;18.50;18.50;;;;;;;;5059113;28;45212;-66
2022/04/18 00:45:10;;;;;;;;;17.75;17.50;;;;;;;;5059298;28;45367;-66
2022/04/18 00:47:36;;;;;;;;;20.25;19.25;;;;;;;;5058607;28;45958;-66
2022/04/18 00:50:02;;;;;;;;;18.75;16.25;;;;;;;;5058979;28;45231;-66
2022/04/18 00:52:27;;;;;;;;;20.25;18.00;;;;;;;;5057933;28;45404;-66
2022/04/18 00:54:54;;;;;;;;;18.00;17.00;;;;;;;;5058907;28;45239;-66
2022/04/18 00:57:20;;;;;;;;;20.25;17.50;;;;;;;;5057342;28;46625;-66
2022/04/18 00:59:45;;;;;;;;;18.75;18.00;;;;;;;;5057175;28;45590;-66
2022/04/18 01:02:13;;;;;;;;;20.50;19.00;;;;;;;;5058584;28;45359;-69
2022/04/18 01:04:38;;;;;;;;;19.25;17.50;;;;;;;;5058921;28;45252;-69
2022/04/18 01:07:04;;;;;;;;;20.50;17.50;;;;;;;;5058255;28;46177;-67
2022/04/18 01:09:30;;;;;;;;;18.75;17.25;;;;;;;;5057068;28;45583;-69
2022/04/18 01:11:56;;;;;;;;;17.75;16.25;;;;;;;;5058612;28;45501;-70
2022/04/18 01:14:21;;;;;;;;;17.75;17.00;;;;;;;;5058656;28;45303;-70
2022/04/18 01:16:46;;;;;;;;;18.00;16.00;;;;;;;;5058318;28;46436;-69
2022/04/18 01:19:12;;;;;;;;;15.75;15.75;;;;;;;;5058405;28;45220;-70
2022/04/18 01:21:37;;;;;;;;;19.50;17.75;;;;;;;;5058363;28;45258;-69
2022/04/18 01:28:58;;;;;;;;;20.75;18.75;;;;;;;;5057225;28;45341;-70
2022/04/18 01:29:32;;;;;;;;;20.25;17.50;;;;;;;;5057977;28;45374;-66
2022/04/18 01:31:57;;;;;;;;;18.50;18.00;;;;;;;;5058497;28;45291;-69
2022/04/18 01:34:22;;;;;;;;;17.25;15.75;;;;;;;;5057026;28;45338;-67
2022/04/18 01:36:48;;;;;;;;;18.00;18.00;;;;;;;;5058127;28;46062;-69
2022/04/18 01:39:13;;;;;;;;;17.25;17.25;;;;;;;;5058114;28;45386;-69
2022/04/18 01:41:38;;;;;;;;;18.50;17.50;;;;;;;;5058077;28;45218;-69
2022/04/18 01:44:04;;;;;;;;;19.50;19.50;;;;;;;;5058228;28;45327;-66
2022/04/18 01:46:29;;;;;;;;;17.25;16.75;;;;;;;;5058179;28;45412;-69
2022/04/18 01:48:54;;;;;;;;;19.25;17.75;;;;;;;;5058035;28;45370;-70
2022/04/18 01:51:20;;;;;;;;;18.50;17.00;;;;;;;;5057939;28;45560;-66
2022/04/18 01:53:46;;;;;;;;;20.50;19.25;;;;;;;;5057831;28;45346;-70
2022/04/18 01:56:11;;;;;;;;;18.25;17.50;;;;;;;;5057653;28;45565;-69
2022/04/18 01:58:37;;;;;;;;;20.00;19.00;;;;;;;;5057629;28;45482;-67
2022/04/18 02:01:02;;;;;;;;;18.50;16.50;;;;;;;;5056340;28;45389;-66
2022/04/18 02:03:28;;;;;;;;;19.00;17.00;;;;;;;;5058361;28;45509;-66
2022/04/18 02:05:55;;;;;;;;;17.75;16.25;;;;;;;;5057583;28;46185;-68
2022/04/18 02:08:20;;;;;;;;;16.75;16.25;;;;;;;;5057699;28;45469;-69
2022/04/18 02:10:46;;;;;;;;;19.00;17.00;;;;;;;;5057387;28;45183;-69
2022/04/18 02:13:12;;;;;;;;;20.00;17.75;;;;;;;;5057709;28;45181;-66
2022/04/18 02:15:37;;;;;;;;;24.25;18.75;;;;;;;;5055868;28;46115;-66
2022/04/18 02:18:02;;;;;;;;;19.00;17.75;;;;;;;;5057899;28;45252;-69
2022/04/18 02:20:28;;;;;;;;;19.50;18.25;;;;;;;;5057934;28;45496;-69
2022/04/18 02:22:54;;;;;;;;;18.00;16.75;;;;;;;;5057093;28;45414;-70
2022/04/18 02:25:19;;;;;;;;;18.00;17.00;;;;;;;;5057146;28;45586;-69
2022/04/18 02:27:45;;;;;;;;;19.00;18.00;;;;;;;;5057177;28;45514;-69
2022/04/18 02:30:10;;;;;;;;;23.75;20.00;;;;;;;;5057260;28;45426;-68
2022/04/18 02:32:48;;;;;;;;;18.50;17.25;;;;;;;;5057470;28;45402;-67
2022/04/18 02:35:23;;;;;;;;;16.50;16.25;;;;;;;;5057004;28;45424;-69
2022/04/18 02:37:49;;;;;;;;;19.00;18.50;;;;;;;;5057071;28;45482;-66
2022/04/18 02:40:15;;;;;;;;;17.00;16.50;;;;;;;;5057194;28;45169;-69
2022/04/18 02:42:42;;;;;;;;;17.75;17.25;;;;;;;;5057475;28;45283;-70
2022/04/18 02:45:07;;;;;;;;;21.25;17.50;;;;;;;;5055701;28;46855;-66
2022/04/18 02:47:33;;;;;;;;;19.00;18.00;;;;;;;;5057296;28;45553;-68
2022/04/18 02:49:58;;;;;;;;;19.00;18.75;;;;;;;;5057061;28;46030;-66
2022/04/18 02:52:23;;;;;;;;;19.50;18.75;;;;;;;;5057193;28;45223;-66
2022/04/18 02:54:49;;;;;;;;;18.50;17.00;;;;;;;;5056668;28;45736;-70
2022/04/18 02:57:14;;;;;;;;;19.00;17.75;;;;;;;;5057086;28;45510;-70
2022/04/18 02:59:40;;;;;;;;;17.50;17.50;;;;;;;;5057046;28;45303;-70
2022/04/18 03:02:05;;;;;;;;;23.00;20.00;;;;;;;;5057658;28;45976;-69
2022/04/18 03:04:30;;;;;;;;;20.75;19.75;;;;;;;;5057059;28;45582;-69
2022/04/18 03:06:56;;;;;;;;;22.75;21.00;;;;;;;;5056915;28;45307;-70
2022/04/18 03:09:21;;;;;;;;;19.25;16.25;;;;;;;;5056865;28;45255;-70
2022/04/18 03:11:47;;;;;;;;;21.00;18.00;;;;;;;;5057037;28;45373;-70
2022/04/18 03:14:12;;;;;;;;;20.25;19.50;;;;;;;;5056522;28;46049;-66
2022/04/18 03:16:38;;;;;;;;;18.00;17.25;;;;;;;;5056725;28;45413;-66
2022/04/18 03:19:03;;;;;;;;;20.25;15.50;;;;;;;;5055855;28;45331;-70
2022/04/18 03:21:29;;;;;;;;;19.25;18.75;;;;;;;;5057031;28;45375;-70
2022/04/18 03:23:55;;;;;;;;;17.50;16.25;;;;;;;;5056504;28;45338;-69
2022/04/18 03:26:20;;;;;;;;;15.75;14.25;;;;;;;;5056714;28;45493;-70
2022/04/18 03:28:46;;;;;;;;;20.00;18.75;;;;;;;;5056666;28;45274;-69
2022/04/18 03:31:12;;;;;;;;;21.00;18.50;;;;;;;;5056696;28;45410;-70
2022/04/18 03:33:37;;;;;;;;;16.75;16.50;;;;;;;;5056486;28;46317;-67
2022/04/18 03:41:30;;;;;;;;;20.00;17.75;;;;;;;;5060014;28;45268;-66
2022/04/18 03:43:56;;;;;;;;;20.50;18.25;;;;;;;;5059696;28;45252;-66
2022/04/18 03:46:21;;;;;;;;;20.00;17.75;;;;;;;;5059756;28;45445;-69
2022/04/18 03:48:46;;;;;;;;;21.50;16.75;;;;;;;;5058414;28;45414;-70
2022/04/18 03:51:12;;;;;;;;;19.50;15.25;;;;;;;;5060003;28;45234;-69
2022/04/18 03:53:37;;;;;;;;;16.50;15.25;;;;;;;;5059821;28;45462;-66
2022/04/18 03:56:02;;;;;;;;;21.25;18.00;;;;;;;;5059496;28;45490;-67
2022/04/18 03:58:28;;;;;;;;;21.50;18.50;;;;;;;;5059619;28;45403;-68
2022/04/18 04:00:53;;;;;;;;;19.25;18.25;;;;;;;;5059767;28;45264;-66
2022/04/18 04:03:18;;;;;;;;;21.50;15.50;;;;;;;;5058084;28;46683;-66
2022/04/18 04:05:44;;;;;;;;;15.00;15.00;;;;;;;;5059533;28;45476;-66
2022/04/18 04:08:09;;;;;;;;;16.00;14.75;;;;;;;;5059858;28;45287;-66
2022/04/18 04:10:34;;;;;;;;;16.75;15.75;;;;;;;;5060082;28;45465;-66
2022/04/18 04:13:00;;;;;;;;;16.75;15.25;;;;;;;;5059142;28;45965;-66
2022/04/18 04:15:25;;;;;;;;;17.75;15.75;;;;;;;;5058936;28;45443;-66
2022/04/18 04:17:51;;;;;;;;;21.50;19.00;;;;;;;;5059330;28;45374;-66
2022/04/18 04:20:16;;;;;;;;;18.25;15.50;;;;;;;;5059366;28;45348;-66
2022/04/18 04:22:48;;;;;;;;;19.00;18.00;;;;;;;;5059124;28;45444;-67
2022/04/18 04:25:17;;;;;;;;;21.50;18.50;;;;;;;;5059034;28;45235;-66
2022/04/18 04:27:42;;;;;;;;;21.00;20.25;;;;;;;;5059141;28;45502;-66
2022/04/18 04:30:08;;;;;;;;;16.50;15.00;;;;;;;;5059268;28;45530;-66
2022/04/18 04:32:33;;;;;;;;;15.25;15.00;;;;;;;;5058697;28;45472;-66
2022/04/18 04:34:59;;;;;;;;;14.50;13.75;;;;;;;;5058905;28;45544;-66
2022/04/18 04:37:24;;;;;;;;;18.50;16.50;;;;;;;;5059187;28;45512;-66
2022/04/18 04:39:50;;;;;;;;;15.50;14.50;;;;;;;;5059256;28;45239;-66
2022/04/18 04:42:17;;;;;;;;;16.50;15.25;;;;;;;;5058831;28;46130;-66
2022/04/18 04:44:42;;;;;;;;;15.00;15.00;;;;;;;;5058734;28;45271;-66
2022/04/18 04:47:08;;;;;;;;;19.75;18.50;;;;;;;;5058583;28;45271;-70
2022/04/18 04:49:33;;;;;;;;;20.75;17.75;;;;;;;;5059204;28;45334;-70
2022/04/18 04:51:59;;;;;;;;;17.25;16.75;;;;;;;;5058756;28;46095;-70
2022/04/18 04:54:24;;;;;;;;;18.25;18.25;;;;;;;;5058722;28;45299;-66
2022/04/18 04:56:49;;;;;;;;;22.50;17.00;;;;;;;;5058740;28;45429;-69
2022/04/18 04:59:15;;;;;;;;;17.00;16.75;;;;;;;;5059057;28;45366;-67
2022/04/18 05:01:40;;;;;;;;;23.50;19.25;;;;;;;;5058663;28;45381;-66
2022/04/18 05:04:05;;;;;;;;;18.50;18.25;;;;;;;;5058531;28;45342;-66
2022/04/18 05:06:31;;;;;;;;;19.50;18.25;;;;;;;;5058509;28;45486;-66
2022/04/18 05:08:56;;;;;;;;;20.25;18.25;;;;;;;;5058715;28;45561;-66
2022/04/18 05:11:21;;;;;;;;;22.50;18.00;;;;;;;;5058282;28;45493;-66
2022/04/18 05:13:47;;;;;;;;;21.00;19.00;;;;;;;;5058449;28;45462;-66
2022/04/18 05:16:12;;;;;;;;;20.50;18.00;;;;;;;;5058770;28;45383;-66
2022/04/18 05:18:38;;;;;;;;;22.25;21.25;;;;;;;;5058677;28;45394;-69
2022/04/18 05:21:03;;;;;;;;;23.00;21.00;;;;;;;;5058222;28;46031;-66
2022/04/18 05:23:28;;;;;;;;;22.50;21.50;;;;;;;;5058257;28;45322;-69
2022/04/18 05:25:54;;;;;;;;;21.00;19.75;;;;;;;;5057063;28;45478;-66
2022/04/18 05:28:19;;;;;;;;;20.25;19.50;;;;;;;;5058627;28;45274;-69
2022/04/18 05:30:45;;;;;;;;;22.75;21.50;;;;;;;;5057912;28;45541;-66
2022/04/18 05:33:10;;;;;;;;;23.00;21.75;;;;;;;;5058606;28;45262;-68
2022/04/18 05:35:35;;;;;;;;;19.00;19.00;;;;;;;;5058137;28;45683;-67
2022/04/18 05:38:01;;;;;;;;;22.50;21.25;;;;;;;;5058438;28;45343;-70
2022/04/18 05:40:27;;;;;;;;;20.50;18.25;;;;;;;;5058026;28;46247;-69
2022/04/18 05:42:53;;;;;;;;;24.75;20.00;;;;;;;;5057987;28;45423;-67
2022/04/18 05:45:18;;;;;;;;;21.25;18.00;;;;;;;;5056431;28;45323;-66
2022/04/18 05:47:43;;;;;;;;;24.25;21.00;;;;;;;;5058287;28;45450;-66
2022/04/18 05:50:09;;;;;;;;;24.50;23.25;;;;;;;;5057898;28;45249;-66
2022/04/18 05:52:34;;;;;;;;;20.00;17.75;;;;;;;;5057844;28;45231;-66
2022/04/18 05:55:00;;;;;;;;;18.50;17.75;;;;;;;;5056475;28;45292;-66
2022/04/18 05:57:25;;;;;;;;;18.00;17.25;;;;;;;;5057757;28;45926;-66
2022/04/18 05:59:50;;;;;;;;;20.75;19.50;;;;;;;;5057183;28;45952;-66
2022/04/18 06:02:16;;;;;;;;;22.50;18.75;;;;;;;;5057496;28;45279;-67
2022/04/18 06:04:41;;;;;;;;;20.25;17.75;;;;;;;;5058027;28;45542;-66
2022/04/18 06:07:07;;;;;;;;;19.75;17.75;;;;;;;;5057887;28;45530;-66
2022/04/18 06:09:32;;;;;;;;;22.00;21.00;;;;;;;;5056167;28;46195;-66
2022/04/18 06:11:58;;;;;;;;;21.25;19.75;;;;;;;;5057561;28;45365;-66
2022/04/18 06:14:23;;;;;;;;;21.00;20.00;;;;;;;;5057677;28;45280;-66
2022/04/18 06:16:48;;;;;;;;;23.25;22.00;;;;;;;;5057633;28;45471;-66
2022/04/18 06:19:14;;;;;;;;;22.25;21.00;;;;;;;;5057798;28;46188;-66
2022/04/18 06:21:39;;;;;;;;;19.75;18.00;;;;;;;;5057549;28;45492;-69
2022/04/18 06:24:05;;;;;;;;;20.25;20.00;;;;;;;;5057330;28;45376;-66
2022/04/18 06:26:30;;;;;;;;;24.25;20.75;;;;;;;;5057483;28;45383;-66
2022/04/18 06:28:57;;;;;;;;;21.25;20.25;;;;;;;;5057190;28;46543;-66
2022/04/18 06:31:23;;;;;;;;;25.50;23.75;;;;;;;;5057135;28;45461;-66
2022/04/18 06:33:48;;;;;;;;;24.00;21.00;;;;;;;;5057095;28;45365;-67
2022/04/18 06:36:13;;;;;;;;;24.00;22.50;;;;;;;;5057540;28;45296;-66
2022/04/18 06:38:39;;;;;;;;;25.00;23.00;;;;;;;;5055516;28;45508;-66
2022/04/18 06:41:04;;;;;;;;;21.50;20.50;;;;;;;;5057023;28;45487;-66
2022/04/18 06:43:30;;;;;;;;;25.50;22.75;;;;;;;;5057146;28;45275;-66
2022/04/18 06:45:55;;;;;;;;;23.25;22.00;;;;;;;;5057327;28;45446;-66
2022/04/18 06:48:20;;;;;;;;;21.50;19.00;;;;;;;;5056974;28;45306;-66
2022/04/18 06:50:46;;;;;;;;;20.75;19.25;;;;;;;;5057133;28;45490;-66
2022/04/18 06:53:12;;;;;;;;;25.00;21.00;;;;;;;;5057198;28;45450;-66
2022/04/18 06:58:21;;;;;;;;;25.75;24.00;;;;;;;;5056749;28;45584;-66
2022/04/18 07:00:46;;;;;;;;;25.50;24.00;;;;;;;;5056920;28;45406;-66
2022/04/18 07:03:12;;;;;;;;;21.50;21.50;;;;;;;;5056933;28;45520;-66
2022/04/18 07:05:39;;;;;;;;;23.25;22.75;;;;;;;;5057144;28;45270;-66
2022/04/18 07:08:05;;;;;;;;;26.75;24.00;;;;;;;;5056596;28;45336;-66
2022/04/18 07:10:30;;;;;;;;;27.75;23.75;;;;;;;;5058938;28;45493;-66
2022/04/18 07:12:55;;;;;;;;;25.50;22.75;;;;;;;;5059077;28;45480;-67
2022/04/18 07:15:20;;;;;;;;;25.00;23.00;;;;;;;;5060502;28;45493;-66
2022/04/18 07:17:46;;;;;;;;;28.25;26.00;;;;;;;;5060685;28;46513;-66
2022/04/18 07:20:11;;;;;;;;;22.00;22.00;;;;;;;;5060229;28;45318;-66
2022/04/18 07:22:39;;;;;;;;;22.25;21.00;;;;;;;;5060273;28;45207;-67
2022/04/18 07:25:05;;;;;;;;;21.00;20.00;;;;;;;;5060209;28;45311;-66
2022/04/18 07:27:30;;;;;;;;;26.25;23.75;;;;;;;;5059985;28;46647;-66
2022/04/18 07:29:56;;;;;;;;;24.50;22.25;;;;;;;;5059917;28;45406;-66
2022/04/18 07:32:21;;;;;;;;;26.00;23.50;;;;;;;;5060042;28;45235;-66
2022/04/18 07:34:47;;;;;;;;;24.50;23.50;;;;;;;;5060229;28;45464;-67
2022/04/18 07:37:12;;;;;;;;;20.75;18.50;;;;;;;;5059697;28;45370;-67
2022/04/18 07:39:38;;;;;;;;;26.25;23.50;;;;;;;;5059606;28;45354;-66
2022/04/18 07:42:03;;;;;;;;;20.75;18.75;;;;;;;;5058386;28;45314;-66
2022/04/18 07:44:29;;;;;;;;;23.00;22.00;;;;;;;;5059664;28;45407;-66
2022/04/18 07:46:54;;;;;;;;;23.00;22.25;;;;;;;;5057932;28;46523;-67
2022/04/18 07:49:20;;;;;;;;;20.25;17.75;;;;;;;;5059977;28;45596;-66
2022/04/18 07:51:45;;;;;;;;;23.75;22.00;;;;;;;;5058332;28;45576;-67
2022/04/18 07:54:12;;;;;;;;;21.75;21.00;;;;;;;;5059826;28;45449;-66
2022/04/18 07:56:38;;;;;;;;;27.50;24.25;;;;;;;;5059302;28;45459;-67
2022/04/18 07:59:05;;;;;;;;;22.25;21.75;;;;;;;;5059301;28;45398;-69
2022/04/18 08:01:30;;;;;;;;;25.00;22.75;;;;;;;;5059585;28;45508;-69
2022/04/18 08:03:57;;;;;;;;;29.25;27.75;;;;;;;;5059619;28;45457;-66
2022/04/18 08:06:22;;;;;;;;;27.50;24.75;;;;;;;;5058191;28;45712;-66
2022/04/18 08:08:47;;;;;;;;;26.50;25.25;;;;;;;;5059075;28;45526;-67
2022/04/18 08:11:15;;;;;;;;;24.50;23.50;;;;;;;;5057835;28;45322;-69
2022/04/18 08:13:44;;;;;;;;;31.75;25.75;;;;;;;;5059462;28;45256;-69
2022/04/18 08:16:10;;;;;;;;;24.75;23.50;;;;;;;;5058719;28;45290;-66
2022/04/18 08:18:38;;;;;;;;;25.75;21.75;;;;;;;;5059028;28;45354;-66
2022/04/18 08:21:03;;;;;;;;;27.00;24.75;;;;;;;;5058111;28;45361;-66
2022/04/18 08:23:29;;;;;;;;;20.50;19.00;;;;;;;;5059199;28;45464;-69
2022/04/18 08:25:55;;;;;;;;;28.75;27.25;;;;;;;;5058866;28;45330;-66
2022/04/18 08:28:20;;;;;;;;;20.75;19.25;;;;;;;;5058911;28;45478;-66
2022/04/18 08:30:45;;;;;;;;;26.50;24.25;;;;;;;;5058197;28;45237;-70
2022/04/18 08:33:11;;;;;;;;;27.25;22.00;;;;;;;;5058556;28;45267;-66
2022/04/18 08:35:36;;;;;;;;;39.50;34.50;;;;;;;;5058254;28;45516;-66
2022/04/18 08:38:01;;;;;;;;;29.75;27.50;;;;;;;;5058526;28;45330;-69
2022/04/18 08:40:27;;;;;;;;;29.75;27.25;;;;;;;;5058319;28;45355;-67
2022/04/18 08:42:56;;;;;;;;;27.00;24.25;;;;;;;;5059021;28;45258;-66
2022/04/18 08:45:23;;;;;;;;;25.50;23.75;;;;;;;;5058338;28;45482;-70
2022/04/18 08:53:19;;;;;;;;;22.25;22.00;;;;;;;;5057703;28;45379;-67
2022/04/18 08:55:44;;;;;;;;;27.75;23.00;;;;;;;;5056079;28;45481;-66
2022/04/18 08:58:11;;;;;;;;;24.00;22.25;;;;;;;;5058277;28;45445;-67
2022/04/18 09:00:37;;;;;;;;;22.50;21.25;;;;;;;;5058133;28;45612;-69
2022/04/18 09:03:03;;;;;;;;;25.25;24.00;;;;;;;;5058006;28;45390;-66
2022/04/18 09:05:34;;;;;;;;;25.25;22.00;;;;;;;;5057633;28;45481;-67
2022/04/18 09:08:00;;;;;;;;;25.25;21.00;;;;;;;;5057739;28;45541;-66
2022/04/18 09:10:26;;;;;;;;;22.25;22.00;;;;;;;;5058313;28;45520;-66
2022/04/18 09:12:51;;;;;;;;;28.75;22.75;;;;;;;;5056572;28;45415;-67
2022/04/18 09:15:31;;;;;;;;;29.25;27.25;;;;;;;;5057419;28;45913;-66
2022/04/18 09:18:06;;;;;;;;;25.75;24.50;;;;;;;;5057892;28;45474;-67
2022/04/18 09:20:39;;;;;;;;;28.75;25.75;;;;;;;;5057334;28;45342;-69
2022/04/18 09:23:05;;;;;;;;;29.50;25.75;;;;;;;;5056055;28;45264;-67
2022/04/18 09:25:36;;;;;;;;;23.75;23.75;;;;;;;;5057437;28;45427;-67
2022/04/18 09:28:02;;;;;;;;;28.25;25.00;;;;;;;;5057600;28;45311;-67
2022/04/18 09:30:31;;;;;;;;;26.50;25.50;;;;;;;;5055942;28;45244;-66
2022/04/18 09:32:59;;;;;;;;;26.25;22.75;;;;;;;;5056433;28;45630;-67
2022/04/18 09:35:25;;;;;;;;;26.50;21.75;;;;;;;;5055992;28;46831;-68
2022/04/18 09:37:51;;;;;;;;;27.25;24.75;;;;;;;;5055882;28;45414;-66
2022/04/18 09:40:21;;;;;;;;;24.00;22.25;;;;;;;;5057799;28;45386;-66
2022/04/18 09:42:46;;;;;;;;;25.50;24.75;;;;;;;;5057494;28;45300;-67
2022/04/18 09:45:11;;;;;;;;;22.00;20.75;;;;;;;;5056979;28;45956;-67
2022/04/18 09:47:37;;;;;;;;;26.50;24.00;;;;;;;;5056951;28;45322;-66
2022/04/18 09:50:58;;;;;;;;;25.50;22.25;;;;;;;;5057483;28;45458;-66
2022/04/18 09:53:04;;;;;;;;;23.75;21.00;;;;;;;;5057293;28;45506;-66
2022/04/18 09:55:30;;;;;;;;;22.75;22.75;;;;;;;;5055774;28;46143;-67
2022/04/18 09:58:01;;;;;;;;;22.50;22.00;;;;;;;;5057389;28;45366;-66
2022/04/18 10:00:26;;;;;;;;;24.50;19.50;;;;;;;;5057534;28;45332;-67
2022/04/18 10:02:51;;;;;;;;;22.50;21.50;;;;;;;;5057104;28;45280;-69
2022/04/18 10:05:17;;;;;;;;;24.75;21.25;;;;;;;;5056495;28;45761;-68
2022/04/18 10:07:42;;;;;;;;;22.00;20.00;;;;;;;;5055305;28;45314;-66
2022/04/18 10:10:08;;;;;;;;;22.00;19.25;;;;;;;;5056648;28;45647;-66
2022/04/18 10:12:33;;;;;;;;;23.00;21.75;;;;;;;;5056695;28;45353;-66
2022/04/18 10:15:00;;;;;;;;;22.50;20.50;;;;;;;;5056161;28;46579;-67
2022/04/18 10:17:27;;;;;;;;;23.00;21.00;;;;;;;;5056124;28;45294;-68
2022/04/18 10:20:12;;;;;;;;;21.50;20.75;;;;;;;;5056323;28;45403;-67
2022/04/18 10:22:49;;;;;;;;;24.50;24.00;;;;;;;;5056728;28;45477;-68
2022/04/18 10:25:33;;;;;;;;;27.25;25.25;;;;;;;;5054918;28;45380;-67
2022/04/18 10:28:37;;;;;;;;;28.50;23.75;;;;;;;;5056105;28;45350;-68
2022/04/18 10:31:07;;;;;;;;;27.25;24.75;;;;;;;;5033650;28;45482;-67
2022/04/18 10:33:34;;;;;;;;;23.75;20.50;;;;;;;;5034352;28;45461;-69
2022/04/18 10:36:09;;;;;;;;;25.00;22.50;;;;;;;;5045257;28;46094;-67
2022/04/18 10:38:38;;;;;;;;;27.25;24.50;;;;;;;;5056633;28;45282;-67
2022/04/18 10:41:35;;;;;;;;;22.25;21.25;;;;;;;;5055222;28;45504;-67
2022/04/18 10:44:02;;;;;;;;;22.50;20.50;;;;;;;;5032534;28;45414;-67
2022/04/18 10:46:28;;;;;;;;;22.00;20.50;;;;;;;;5056388;28;46089;-67
2022/04/18 10:48:58;;;;;;;;;21.50;20.50;;;;;;;;5055950;28;45411;-67
2022/04/18 10:51:29;;;;;;;;;26.50;25.50;;;;;;;;5056437;28;45394;-66
2022/04/18 10:54:13;;;;;;;;;24.25;23.00;;;;;;;;5056182;28;45208;-67
2022/04/18 10:56:48;;;;;;;;;21.25;20.00;;;;;;;;5055718;28;45566;-67
2022/04/18 10:59:14;;;;;;;;;20.00;18.00;;;;;;;;5056265;28;45529;-67
2022/04/18 11:01:40;;;;;;;;;25.50;23.75;;;;;;;;5054863;28;45333;-68
2022/04/18 11:04:10;;;;;;;;;20.25;19.25;;;;;;;;5056481;28;45360;-67
2022/04/18 11:06:36;;;;;;;;;24.25;22.50;;;;;;;;5054709;28;46243;-69
2022/04/18 11:09:07;;;;;;;;;21.50;20.50;;;;;;;;5056273;28;45210;-70
2022/04/18 11:11:37;;;;;;;;;23.00;22.25;;;;;;;;5056347;28;45441;-67
2022/04/18 11:14:12;;;;;;;;;19.50;18.25;;;;;;;;5056095;28;45487;-69
2022/04/18 11:16:44;;;;;;;;;24.50;20.00;;;;;;;;5055801;28;46243;-69
2022/04/18 11:19:15;;;;;;;;;30.00;25.00;;;;;;;;5056045;28;45441;-67
2022/04/18 11:21:54;;;;;;;;;52.00;43.00;;;;;;;;5056167;28;45513;-69
2022/04/18 11:24:36;;;;;;;;;24.00;22.75;;;;;;;;5055871;28;45310;-69
2022/04/18 11:27:02;;;;;;;;;23.00;20.25;;;;;;;;5056052;28;46627;-67
2022/04/18 11:29:30;;;;;;;;;20.75;20.75;;;;;;;;5055831;28;45256;-66
2022/04/18 11:31:55;;;;;;;;;19.50;18.25;;;;;;;;5055466;28;45520;-67
2022/04/18 11:34:24;;;;;;;;;25.25;22.25;;;;;;;;5055466;28;45305;-67
2022/04/18 11:36:50;;;;;;;;;26.75;22.50;;;;;;;;5054085;28;46549;-68
2022/04/18 11:39:16;;;;;;;;;20.25;20.25;;;;;;;;5055028;28;45684;-68
2022/04/18 11:41:41;;;;;;;;;18.75;18.75;;;;;;;;5055324;28;45439;-67
2022/04/18 11:44:06;;;;;;;;;21.00;20.75;;;;;;;;5056295;28;45480;-67
2022/04/18 11:46:32;;;;;;;;;23.00;23.00;;;;;;;;5055837;28;45508;-69
2022/04/18 11:48:57;;;;;;;;;25.00;23.25;;;;;;;;5055843;28;46248;-67
2022/04/18 11:51:39;;;;;;;;;21.75;21.00;;;;;;;;5055849;28;45472;-69
2022/04/18 11:54:04;;;;;;;;;23.50;22.00;;;;;;;;5056341;28;45245;-69
2022/04/18 11:56:29;;;;;;;;;23.75;22.50;;;;;;;;5056300;28;45558;-69
2022/04/18 11:58:55;;;;;;;;;22.50;20.50;;;;;;;;5059170;28;45481;-67
2022/04/18 12:06:51;;;;;;;;;22.00;19.00;;;;;;;;5058602;28;45422;-66
2022/04/18 12:09:18;;;;;;;;;22.00;19.00;;;;;;;;5059089;28;45350;-67
2022/04/18 12:11:43;;;;;;;;;19.50;19.50;;;;;;;;5058965;28;45452;-70
2022/04/18 12:14:09;;;;;;;;;21.75;21.00;;;;;;;;5057513;28;45347;-68
2022/04/18 12:16:35;;;;;;;;;33.50;30.25;;;;;;;;5057768;28;45340;-68
2022/04/18 12:19:01;;;;;;;;;25.75;24.00;;;;;;;;5057663;28;45486;-69
2022/04/18 12:21:27;;;;;;;;;39.00;34.50;;;;;;;;5058343;28;45235;-70
2022/04/18 12:23:56;;;;;;;;;34.00;29.00;;;;;;;;5059254;28;45580;-66
2022/04/18 12:26:29;;;;;;;;;21.25;21.00;;;;;;;;5058545;28;46161;-67
2022/04/18 12:28:59;;;;;;;;;22.50;21.00;;;;;;;;5056881;28;45453;-67
2022/04/18 12:31:25;;;;;;;;;25.75;23.50;;;;;;;;5058479;28;45588;-66
2022/04/18 12:33:50;;;;;;;;;23.50;22.75;;;;;;;;5058767;28;45533;-69
2022/04/18 12:36:26;;;;;;;;;20.50;19.25;;;;;;;;5058250;28;45859;-66
2022/04/18 12:38:52;;;;;;;;;25.25;20.00;;;;;;;;5058433;28;45232;-66
2022/04/18 12:41:31;;;;;;;;;21.50;18.75;;;;;;;;5058465;28;45304;-69
2022/04/18 12:43:56;;;;;;;;;22.00;20.75;;;;;;;;5058121;28;45459;-66
2022/04/18 12:46:25;;;;;;;;;22.75;19.75;;;;;;;;5057560;28;45499;-66
2022/04/18 12:48:51;;;;;;;;;23.25;21.25;;;;;;;;5058199;28;45518;-66
2022/04/18 12:51:18;;;;;;;;;20.00;19.25;;;;;;;;5057940;28;45468;-66
2022/04/18 12:53:46;;;;;;;;;22.25;20.25;;;;;;;;5058081;28;45348;-66
2022/04/18 12:56:13;;;;;;;;;20.00;19.25;;;;;;;;5057849;28;46247;-66
2022/04/18 12:58:40;;;;;;;;;20.50;18.50;;;;;;;;5058447;28;45556;-68
2022/04/18 13:01:06;;;;;;;;;20.75;18.75;;;;;;;;5058316;28;45443;-66
2022/04/18 13:03:40;;;;;;;;;19.00;19.00;;;;;;;;5057775;28;45273;-66
2022/04/18 13:06:05;;;;;;;;;19.50;18.75;;;;;;;;5056560;28;46423;-68
2022/04/18 13:08:35;;;;;;;;;24.00;20.00;;;;;;;;5057320;28;45466;-68
2022/04/18 13:11:00;;;;;;;;;19.50;18.75;;;;;;;;5058266;28;45399;-67
2022/04/18 13:13:26;;;;;;;;;20.00;19.00;;;;;;;;5057794;28;45208;-66
2022/04/18 13:15:52;;;;;;;;;21.75;19.75;;;;;;;;5057489;28;45492;-66
2022/04/18 13:18:21;;;;;;;;;24.75;22.00;;;;;;;;5056552;28;45400;-67
2022/04/18 13:20:47;;;;;;;;;20.50;18.25;;;;;;;;5057300;28;45383;-66
2022/04/18 13:23:13;;;;;;;;;21.50;20.75;;;;;;;;5056446;28;45513;-67
2022/04/18 13:25:40;;;;;;;;;22.25;21.50;;;;;;;;5058029;28;45525;-66
2022/04/18 13:28:07;;;;;;;;;29.25;28.50;;;;;;;;5057743;28;45210;-66
2022/04/18 13:30:33;;;;;;;;;22.25;21.00;;;;;;;;5057328;28;45410;-66
2022/04/18 13:32:58;;;;;;;;;22.50;19.75;;;;;;;;5057329;28;45434;-68
2022/04/18 13:35:24;;;;;;;;;19.75;18.75;;;;;;;;5056879;28;45940;-67
2022/04/18 13:37:51;;;;;;;;;20.50;18.75;;;;;;;;5057406;28;45351;-68
2022/04/18 13:40:17;;;;;;;;;24.75;23.25;;;;;;;;5057627;28;45442;-66
2022/04/18 13:42:42;;;;;;;;;22.00;21.75;;;;;;;;5057768;28;45747;-67
2022/04/18 13:45:09;;;;;;;;;22.50;20.50;;;;;;;;5055961;28;45337;-68
2022/04/18 13:47:41;;;;;;;;;18.00;17.50;;;;;;;;5056804;28;45492;-67
2022/04/18 13:50:12;;;;;;;;;20.00;19.75;;;;;;;;5057034;28;45500;-66
2022/04/18 13:52:38;;;;;;;;;16.75;15.75;;;;;;;;5057378;28;45427;-67
2022/04/18 13:55:04;;;;;;;;;22.75;20.00;;;;;;;;5056394;28;46000;-70
2022/04/18 13:57:29;;;;;;;;;20.00;17.75;;;;;;;;5055394;28;45504;-67
2022/04/18 13:59:55;;;;;;;;;21.50;18.50;;;;;;;;5056653;28;45304;-70
2022/04/18 14:02:20;;;;;;;;;23.75;21.00;;;;;;;;5056926;28;45267;-68
2022/04/18 14:04:45;;;;;;;;;20.25;19.50;;;;;;;;5056777;28;45463;-70
2022/04/18 14:07:11;;;;;;;;;23.25;19.50;;;;;;;;5057125;28;45305;-68
2022/04/18 14:09:36;;;;;;;;;19.25;18.75;;;;;;;;5056887;28;45406;-70
2022/04/18 14:12:02;;;;;;;;;18.75;17.00;;;;;;;;5056574;28;45545;-70
2022/04/18 14:22:39;;;;;;;;;17.33;15.33;;;;;;;;5056822;28;45432;-68
2022/04/18 14:25:05;;;;;;;;;19.50;18.50;;;;;;;;5056135;28;46391;-68
2022/04/18 14:27:30;;;;;;;;;17.75;17.75;;;;;;;;5054790;28;45394;-68
2022/04/18 14:29:56;;;;;;;;;18.33;17.33;;;;;;;;5056367;28;45269;-69
2022/04/18 14:32:22;;;;;;;;;19.00;17.33;;;;;;;;5056734;28;45410;-69
2022/04/18 14:34:48;;;;;;;;;15.67;15.00;;;;;;;;5055813;28;45439;-68
2022/04/18 14:37:13;;;;;;;;;26.25;22.50;;;;;;;;5054925;28;45415;-68
2022/04/18 14:39:38;;;;;;;;;20.00;18.33;;;;;;;;5055779;28;45533;-68
2022/04/18 14:42:04;;;;;;;;;18.33;16.00;;;;;;;;5056343;28;45248;-68
2022/04/18 14:44:30;;;;;;;;;22.75;20.75;;;;;;;;5055146;28;46069;-70